createdAt,value
2023-12-31T00:00:58.144Z,13.55
2023-12-31T00:03:27.981Z,13.93
2023-12-31T00:05:58.972Z,14.19
2023-12-31T00:08:29.328Z,13.84
2023-12-31T00:10:57.898Z,13.77
2023-12-31T00:13:29.392Z,13.43
2023-12-31T00:15:59.191Z,13.31
2023-12-31T00:18:31.585Z,13.61
2023-12-31T00:21:04.408Z,13.33
2023-12-31T00:23:37.132Z,13.30
2023-12-31T00:26:08.405Z,13.64
2023-12-31T00:28:42.012Z,13.35
2023-12-31T00:31:13.100Z,13.34
2023-12-31T00:33:47.019Z,13.40
2023-12-31T00:36:22.507Z,13.20
2023-12-31T00:38:57.569Z,13.74
2023-12-31T00:41:25.360Z,13.59
2023-12-31T00:43:54.034Z,12.80
2023-12-31T00:46:29.762Z,13.02
2023-12-31T00:49:00.851Z,13.19
2023-12-31T00:51:30.426Z,13.10
2023-12-31T00:54:03.416Z,13.25
2023-12-31T00:56:33.863Z,13.22
2023-12-31T00:59:03.779Z,12.53
2023-12-31T01:01:32.881Z,12.68
2023-12-31T01:04:04.693Z,12.70
2023-12-31T01:06:33.048Z,12.75
2023-12-31T01:09:01.216Z,12.34
2023-12-31T01:11:29.944Z,12.41
2023-12-31T01:16:44.843Z,12.56
2023-12-31T01:19:21.302Z,12.54
2023-12-31T01:21:51.195Z,12.06
2023-12-31T01:24:27.580Z,11.65
2023-12-31T01:26:57.582Z,11.46
2023-12-31T01:29:26.443Z,11.48
2023-12-31T01:31:57.753Z,11.52
2023-12-31T01:34:30.839Z,12.00
2023-12-31T01:36:59.472Z,12.40
2023-12-31T01:39:27.858Z,11.81
2023-12-31T01:42:06.659Z,11.84
2023-12-31T01:44:35.012Z,11.94
2023-12-31T01:47:08.926Z,11.83
2023-12-31T01:49:40.617Z,11.41
2023-12-31T01:52:08.582Z,11.52
2023-12-31T01:54:38.721Z,11.60
2023-12-31T01:57:12.114Z,11.34
2023-12-31T01:59:43.210Z,11.44
2023-12-31T02:02:11.566Z,11.57
2023-12-31T02:04:55.892Z,10.74
2023-12-31T02:07:25.713Z,11.02
2023-12-31T02:09:54.436Z,10.65
2023-12-31T02:12:26.542Z,11.09
2023-12-31T02:14:54.729Z,10.90
2023-12-31T02:17:37.203Z,10.70
2023-12-31T02:20:09.504Z,10.30
2023-12-31T02:22:38.163Z,10.72
2023-12-31T02:25:22.165Z,11.57
2023-12-31T02:27:51.716Z,10.86
2023-12-31T02:30:20.173Z,11.16
2023-12-31T02:32:49.412Z,10.56
2023-12-31T02:35:45.314Z,11.45
2023-12-31T02:38:16.383Z,11.71
2023-12-31T02:40:47.064Z,11.78
2023-12-31T02:43:23.738Z,11.28
2023-12-31T02:46:02.973Z,11.60
2023-12-31T02:49:04.810Z,11.62
2023-12-31T02:51:40.921Z,11.00
2023-12-31T02:54:08.792Z,11.57
2023-12-31T02:56:50.444Z,11.34
2023-12-31T02:59:22.825Z,11.09
2023-12-31T03:01:54.574Z,10.75
2023-12-31T03:04:24.266Z,10.54
2023-12-31T03:06:56.854Z,10.82
2023-12-31T03:09:26.050Z,10.83
2023-12-31T03:11:57.134Z,10.51
2023-12-31T03:14:30.879Z,10.97
2023-12-31T03:17:01.789Z,11.07
2023-12-31T03:19:34.857Z,11.43
2023-12-31T03:22:05.924Z,11.07
2023-12-31T03:24:35.063Z,11.16
2023-12-31T03:27:03.382Z,11.07
2023-12-31T03:29:34.530Z,10.81
2023-12-31T03:32:05.039Z,10.94
2023-12-31T03:34:35.351Z,10.86
2023-12-31T03:37:03.691Z,11.16
2023-12-31T03:39:32.803Z,11.35
2023-12-31T03:42:01.024Z,10.77
2023-12-31T03:44:30.832Z,10.93
2023-12-31T03:47:01.496Z,10.82
2023-12-31T03:49:30.518Z,11.28
2023-12-31T03:52:07.721Z,10.94
2023-12-31T03:54:36.292Z,10.69
2023-12-31T03:57:05.932Z,10.90
2023-12-31T03:59:38.952Z,11.03
2023-12-31T04:02:12.325Z,10.57
2023-12-31T04:04:49.498Z,10.49
2023-12-31T04:07:22.524Z,11.13
2023-12-31T04:09:52.475Z,10.91
2023-12-31T04:12:23.263Z,10.84
2023-12-31T04:14:52.554Z,10.65
2023-12-31T04:17:23.104Z,10.53
2023-12-31T04:19:54.565Z,10.91
2023-12-31T04:22:26.578Z,11.46
2023-12-31T04:24:55.672Z,10.16
2023-12-31T04:27:24.993Z,10.70
2023-12-31T04:29:59.348Z,11.04
2023-12-31T04:32:28.593Z,11.30
2023-12-31T04:34:58.437Z,10.36
2023-12-31T04:37:28.918Z,11.35
2023-12-31T04:39:57.657Z,11.82
2023-12-31T04:42:30.027Z,11.01
2023-12-31T04:45:06.710Z,11.20
2023-12-31T04:47:39.335Z,11.22
2023-12-31T04:50:11.141Z,11.41
2023-12-31T04:52:43.093Z,10.87
2023-12-31T04:55:12.927Z,11.16
2023-12-31T04:57:46.245Z,11.16
2023-12-31T05:00:17.448Z,10.99
2023-12-31T05:02:55.901Z,10.96
2023-12-31T05:05:24.313Z,11.07
2023-12-31T05:07:52.623Z,11.41
2023-12-31T05:10:22.570Z,11.61
2023-12-31T05:12:51.577Z,11.23
2023-12-31T05:15:23.357Z,11.67
2023-12-31T05:17:53.777Z,11.00
2023-12-31T05:20:23.619Z,11.42
2023-12-31T05:22:54.322Z,11.10
2023-12-31T05:25:23.156Z,11.19
2023-12-31T05:27:53.855Z,10.81
2023-12-31T05:30:23.754Z,10.86
2023-12-31T05:33:03.494Z,11.12
2023-12-31T05:35:32.085Z,11.84
2023-12-31T05:38:00.293Z,11.51
2023-12-31T05:40:28.630Z,11.52
2023-12-31T05:42:57.286Z,11.21
2023-12-31T05:45:26.425Z,11.76
2023-12-31T05:47:57.237Z,11.95
2023-12-31T05:50:26.181Z,11.75
2023-12-31T05:52:57.906Z,11.74
2023-12-31T05:55:27.096Z,11.07
2023-12-31T05:57:59.584Z,11.03
2023-12-31T06:00:28.899Z,11.24
2023-12-31T06:02:58.832Z,10.91
2023-12-31T06:05:31.930Z,11.48
2023-12-31T06:08:03.090Z,11.78
2023-12-31T06:10:31.132Z,11.68
2023-12-31T06:13:00.838Z,11.06
2023-12-31T06:15:29.007Z,11.96
2023-12-31T06:17:58.321Z,11.64
2023-12-31T06:20:27.464Z,12.03
2023-12-31T06:22:58.111Z,12.04
2023-12-31T06:25:28.352Z,11.77
2023-12-31T06:27:58.040Z,12.07
2023-12-31T06:30:29.992Z,12.34
2023-12-31T06:32:59.302Z,12.61
2023-12-31T06:35:32.173Z,11.57
2023-12-31T06:38:03.530Z,12.32
2023-12-31T06:40:31.864Z,10.90
2023-12-31T06:43:03.040Z,11.97
2023-12-31T06:45:31.478Z,12.56
2023-12-31T06:48:01.166Z,11.39
2023-12-31T06:50:28.961Z,12.64
2023-12-31T06:52:58.711Z,12.62
2023-12-31T06:55:27.158Z,11.74
2023-12-31T06:57:56.580Z,12.73
2023-12-31T07:00:25.496Z,12.16
2023-12-31T07:02:53.356Z,12.72
2023-12-31T07:05:25.986Z,12.69
2023-12-31T07:07:55.347Z,13.10
2023-12-31T07:10:27.035Z,13.31
2023-12-31T07:12:55.410Z,12.33
2023-12-31T07:15:23.521Z,12.66
2023-12-31T07:17:54.001Z,12.07
2023-12-31T07:20:24.213Z,11.89
2023-12-31T07:22:54.298Z,11.95
2023-12-31T07:25:26.613Z,12.07
2023-12-31T07:28:01.339Z,12.78
2023-12-31T07:30:32.060Z,12.52
2023-12-31T07:33:00.613Z,12.68
2023-12-31T07:35:32.361Z,12.48
2023-12-31T07:38:01.429Z,12.51
2023-12-31T07:40:29.731Z,12.37
2023-12-31T07:43:01.720Z,13.15
2023-12-31T07:45:30.300Z,12.90
2023-12-31T07:47:59.145Z,12.94
2023-12-31T07:50:29.233Z,12.93
2023-12-31T07:52:57.791Z,12.40
2023-12-31T07:55:25.881Z,12.26
2023-12-31T07:57:53.753Z,12.54
2023-12-31T08:00:25.445Z,12.70
2023-12-31T08:02:54.197Z,12.17
2023-12-31T08:05:22.526Z,12.07
2023-12-31T08:07:52.856Z,12.44
2023-12-31T08:10:22.020Z,12.17
2023-12-31T08:12:50.338Z,12.89
2023-12-31T08:15:19.227Z,12.63
2023-12-31T08:17:48.830Z,12.41
2023-12-31T08:20:17.978Z,12.34
2023-12-31T08:22:47.136Z,12.62
2023-12-31T08:25:17.203Z,12.80
2023-12-31T08:27:47.357Z,13.40
2023-12-31T08:30:15.374Z,13.11
2023-12-31T08:32:46.298Z,12.55
2023-12-31T08:35:16.876Z,13.05
2023-12-31T08:37:46.074Z,12.39
2023-12-31T08:40:13.956Z,12.15
2023-12-31T08:42:43.575Z,12.67
2023-12-31T08:45:12.750Z,12.10
2023-12-31T08:47:41.754Z,12.88
2023-12-31T08:50:12.994Z,13.31
2023-12-31T08:52:44.815Z,12.96
2023-12-31T08:55:18.200Z,12.18
2023-12-31T08:58:04.445Z,12.75
2023-12-31T09:00:33.490Z,13.07
2023-12-31T09:03:02.693Z,12.82
2023-12-31T09:05:34.458Z,13.17
2023-12-31T09:08:03.637Z,13.61
2023-12-31T09:10:33.403Z,12.80
2023-12-31T09:13:08.960Z,12.86
2023-12-31T09:15:37.667Z,12.90
2023-12-31T09:18:07.171Z,13.81
2023-12-31T09:20:49.255Z,13.91
2023-12-31T09:23:18.554Z,12.98
2023-12-31T09:25:50.733Z,13.72
2023-12-31T09:28:25.115Z,13.45
2023-12-31T09:31:02.288Z,13.51
2023-12-31T09:33:31.019Z,13.24
2023-12-31T09:36:00.162Z,12.50
2023-12-31T09:38:31.851Z,12.48
2023-12-31T09:41:00.724Z,13.86
2023-12-31T09:43:31.480Z,13.40
2023-12-31T09:46:01.228Z,12.51
2023-12-31T09:48:30.983Z,12.79
2023-12-31T09:51:02.291Z,13.84
2023-12-31T09:53:31.944Z,13.53
2023-12-31T09:56:00.755Z,13.68
2023-12-31T09:58:29.536Z,13.42
2023-12-31T10:01:07.630Z,13.21
2023-12-31T10:03:37.200Z,12.43
2023-12-31T10:06:07.626Z,13.02
2023-12-31T10:08:38.506Z,13.00
2023-12-31T10:11:07.692Z,12.92
2023-12-31T10:13:38.213Z,12.85
2023-12-31T10:16:19.720Z,12.91
2023-12-31T10:18:48.359Z,13.13
2023-12-31T10:21:21.561Z,13.11
2023-12-31T10:23:53.382Z,12.94
2023-12-31T10:26:24.657Z,12.82
2023-12-31T10:28:54.880Z,12.80
2023-12-31T10:31:26.648Z,13.62
2023-12-31T10:33:57.853Z,13.39
2023-12-31T10:36:34.092Z,13.25
2023-12-31T10:39:03.095Z,13.30
2023-12-31T10:41:38.641Z,13.45
2023-12-31T10:44:16.108Z,13.52
2023-12-31T10:46:48.155Z,14.10
2023-12-31T10:49:20.549Z,13.70
2023-12-31T10:51:58.766Z,13.71
2023-12-31T10:54:38.790Z,13.66
2023-12-31T10:57:11.309Z,14.09
2023-12-31T10:59:42.598Z,13.93
2023-12-31T11:02:18.183Z,14.01
2023-12-31T11:04:48.854Z,13.44
2023-12-31T11:07:20.100Z,13.52
2023-12-31T11:09:51.452Z,13.52
2023-12-31T11:12:23.219Z,14.20
2023-12-31T11:14:57.604Z,13.86
2023-12-31T11:18:00.753Z,13.71
2023-12-31T11:20:52.991Z,13.80
2023-12-31T11:23:39.316Z,14.86
2023-12-31T11:26:10.780Z,14.23
2023-12-31T11:28:39.178Z,13.74
2023-12-31T11:31:12.042Z,12.71
2023-12-31T11:33:43.092Z,13.03
2023-12-31T11:36:15.420Z,13.23
2023-12-31T11:39:02.152Z,13.57
2023-12-31T11:41:35.603Z,13.41
2023-12-31T11:44:07.146Z,13.16
2023-12-31T11:46:44.090Z,12.27
2023-12-31T11:49:21.860Z,12.67
2023-12-31T11:51:57.523Z,12.58
2023-12-31T11:54:37.950Z,12.65
2023-12-31T11:57:08.007Z,13.08
2023-12-31T11:59:37.291Z,13.57
2023-12-31T12:02:09.502Z,12.74
2023-12-31T12:04:43.436Z,13.23
2023-12-31T12:07:14.813Z,13.33
2023-12-31T12:09:44.590Z,13.39
2023-12-31T12:12:13.193Z,13.74
2023-12-31T12:14:41.052Z,13.15
2023-12-31T12:17:09.938Z,13.16
2023-12-31T12:19:42.199Z,13.34
2023-12-31T12:22:12.436Z,13.34
2023-12-31T12:24:45.358Z,13.08
2023-12-31T12:27:13.689Z,13.18
2023-12-31T12:29:43.224Z,13.88
2023-12-31T12:32:20.220Z,13.64
2023-12-31T12:34:52.169Z,13.92
2023-12-31T12:37:29.716Z,13.12
2023-12-31T12:39:58.422Z,14.04
2023-12-31T12:42:28.099Z,13.00
2023-12-31T12:45:02.308Z,13.76
2023-12-31T12:47:33.944Z,13.50
2023-12-31T12:50:04.959Z,13.29
2023-12-31T12:52:34.593Z,13.37
2023-12-31T12:55:03.603Z,13.24
2023-12-31T12:57:36.323Z,13.55
2023-12-31T13:00:07.954Z,13.49
2023-12-31T13:02:44.326Z,13.36
2023-12-31T13:05:19.693Z,13.21
2023-12-31T13:07:48.727Z,13.58
2023-12-31T13:10:17.604Z,13.90
2023-12-31T13:12:50.916Z,14.01
2023-12-31T13:15:20.315Z,14.09
2023-12-31T13:17:50.838Z,13.45
2023-12-31T13:20:24.530Z,13.80
2023-12-31T13:22:54.038Z,14.08
2023-12-31T13:25:23.659Z,13.19
2023-12-31T13:27:53.317Z,13.70
2023-12-31T13:30:23.048Z,13.05
2023-12-31T13:32:57.283Z,13.11
2023-12-31T13:35:30.657Z,14.25
2023-12-31T13:38:00.444Z,14.46
2023-12-31T13:40:31.368Z,13.55
2023-12-31T13:43:12.356Z,14.04
2023-12-31T13:45:43.943Z,13.86
2023-12-31T13:48:17.868Z,13.69
2023-12-31T13:50:47.658Z,13.69
2023-12-31T13:53:22.354Z,13.66
2023-12-31T13:55:50.714Z,13.76
2023-12-31T13:58:18.525Z,13.52
2023-12-31T14:00:53.891Z,13.80
2023-12-31T14:03:26.826Z,13.47
2023-12-31T14:05:56.372Z,14.10
2023-12-31T14:08:24.946Z,13.46
2023-12-31T14:10:55.880Z,13.91
2023-12-31T14:13:26.089Z,13.38
2023-12-31T14:15:55.488Z,13.28
2023-12-31T14:18:23.687Z,13.15
2023-12-31T14:20:51.922Z,13.89
2023-12-31T14:23:22.133Z,13.65
2023-12-31T14:25:53.770Z,14.14
2023-12-31T14:28:22.576Z,13.57
2023-12-31T14:30:51.709Z,13.83
2023-12-31T14:33:20.945Z,13.86
2023-12-31T14:35:51.052Z,13.06
2023-12-31T14:38:23.053Z,13.78
2023-12-31T14:40:52.939Z,13.64
2023-12-31T14:43:21.293Z,13.11
2023-12-31T14:45:55.488Z,14.19
2023-12-31T14:48:23.633Z,13.56
2023-12-31T14:50:55.821Z,13.24
2023-12-31T14:53:30.332Z,13.47
2023-12-31T14:55:59.319Z,13.89
2023-12-31T14:58:29.443Z,13.39
2023-12-31T15:00:59.718Z,14.04
2023-12-31T15:03:27.888Z,13.82
2023-12-31T15:06:01.949Z,13.74
2023-12-31T15:08:33.303Z,13.26
2023-12-31T15:11:02.196Z,13.79
2023-12-31T15:13:32.000Z,13.02
2023-12-31T15:16:01.617Z,13.93
2023-12-31T15:18:31.821Z,13.30
2023-12-31T15:21:00.348Z,13.51
2023-12-31T15:23:28.182Z,12.94
2023-12-31T15:25:59.012Z,13.44
2023-12-31T15:28:32.595Z,13.65
2023-12-31T15:31:05.884Z,13.34
2023-12-31T15:33:37.427Z,13.13
2023-12-31T15:36:11.795Z,13.28
2023-12-31T15:38:48.032Z,13.49
2023-12-31T15:41:21.248Z,13.80
2023-12-31T15:43:49.542Z,13.23
2023-12-31T15:46:18.463Z,13.81
2023-12-31T15:48:49.185Z,13.12
2023-12-31T15:51:18.576Z,12.96
2023-12-31T15:53:51.308Z,12.87
2023-12-31T15:56:24.246Z,13.07
2023-12-31T15:59:06.282Z,12.85
2023-12-31T16:01:36.939Z,13.46
2023-12-31T16:04:05.459Z,12.87
2023-12-31T16:06:35.210Z,12.79
2023-12-31T16:09:04.911Z,13.79
2023-12-31T16:11:34.519Z,12.61
2023-12-31T16:14:05.301Z,13.09
2023-12-31T16:16:39.190Z,12.72
2023-12-31T16:19:10.861Z,12.64
2023-12-31T16:21:41.503Z,12.81
2023-12-31T16:24:10.020Z,13.04
2023-12-31T16:26:39.501Z,12.81
2023-12-31T16:29:09.265Z,13.10
2023-12-31T16:31:45.055Z,13.13
2023-12-31T16:34:16.342Z,12.92
2023-12-31T16:36:47.713Z,13.39
2023-12-31T16:39:23.496Z,12.71
2023-12-31T16:41:55.283Z,13.30
2023-12-31T16:44:25.628Z,12.85
2023-12-31T16:46:59.461Z,12.78
2023-12-31T16:49:30.535Z,12.88
2023-12-31T16:52:02.660Z,12.41
2023-12-31T16:54:32.310Z,12.68
2023-12-31T16:57:09.243Z,12.44
2023-12-31T16:59:39.594Z,12.20
2023-12-31T17:02:15.718Z,12.31
2023-12-31T17:04:44.687Z,12.51
2023-12-31T17:07:20.672Z,12.09
2023-12-31T17:09:51.305Z,12.36
2023-12-31T17:12:22.191Z,12.37
2023-12-31T17:14:50.568Z,12.31
2023-12-31T17:17:19.827Z,12.48
2023-12-31T17:19:50.379Z,12.49
2023-12-31T17:22:23.572Z,12.11
2023-12-31T17:24:55.722Z,12.25
2023-12-31T17:27:26.874Z,12.62
2023-12-31T17:29:55.943Z,11.96
2023-12-31T17:32:26.122Z,12.05
2023-12-31T17:34:57.152Z,12.23
2023-12-31T17:37:30.727Z,12.22
2023-12-31T17:40:01.365Z,12.13
2023-12-31T17:42:35.614Z,12.97
2023-12-31T17:45:05.534Z,11.87
2023-12-31T17:47:35.290Z,12.76
2023-12-31T17:50:09.434Z,12.71
2023-12-31T17:52:37.955Z,12.05
2023-12-31T17:55:09.773Z,12.72
2023-12-31T17:57:43.279Z,12.39
2023-12-31T18:00:14.768Z,12.73
2023-12-31T18:02:43.883Z,12.72
2023-12-31T18:05:20.111Z,12.76
2023-12-31T18:07:49.144Z,12.60
2023-12-31T18:10:18.646Z,12.11
2023-12-31T18:12:53.998Z,12.83
2023-12-31T18:15:25.479Z,12.54
2023-12-31T18:18:34.873Z,12.18
2023-12-31T18:21:13.317Z,12.05
2023-12-31T18:23:42.915Z,12.12
2023-12-31T18:26:11.372Z,12.05
2023-12-31T18:28:43.110Z,12.80
2023-12-31T18:31:15.069Z,12.22
2023-12-31T18:33:48.124Z,12.30
2023-12-31T18:36:21.213Z,13.01
2023-12-31T18:38:54.120Z,12.97
2023-12-31T18:41:24.673Z,12.56
2023-12-31T18:43:55.983Z,12.49
2023-12-31T18:46:26.667Z,11.97
2023-12-31T18:49:02.156Z,12.34
2023-12-31T18:51:32.764Z,11.97
2023-12-31T18:54:16.514Z,11.65
2023-12-31T18:56:45.168Z,11.87
2023-12-31T18:59:14.960Z,11.68
2023-12-31T19:01:44.455Z,11.79
2023-12-31T19:04:17.720Z,11.87
2023-12-31T19:06:52.202Z,11.79
2023-12-31T19:09:24.997Z,11.81
2023-12-31T19:11:55.077Z,12.12
2023-12-31T19:14:26.886Z,12.41
2023-12-31T19:16:56.346Z,11.83
2023-12-31T19:19:31.651Z,11.54
2023-12-31T19:22:00.287Z,11.72
2023-12-31T19:24:41.704Z,11.51
2023-12-31T19:27:12.691Z,11.74
2023-12-31T19:29:46.679Z,11.57
2023-12-31T19:32:17.288Z,11.77
2023-12-31T19:34:47.726Z,11.28
2023-12-31T19:37:17.719Z,11.88
2023-12-31T19:39:48.442Z,11.83
2023-12-31T19:42:17.035Z,11.09
2023-12-31T19:44:47.316Z,11.12
2023-12-31T19:47:28.507Z,11.59
2023-12-31T19:50:02.400Z,11.61
2023-12-31T19:52:30.556Z,11.55
2023-12-31T19:55:00.479Z,11.24
2023-12-31T19:57:30.820Z,11.83
2023-12-31T20:00:08.197Z,12.26
2023-12-31T20:02:43.201Z,11.90
2023-12-31T20:05:12.025Z,11.88
2023-12-31T20:07:43.527Z,11.41
2023-12-31T20:10:14.767Z,11.49
2023-12-31T20:12:43.855Z,11.69
2023-12-31T20:15:14.224Z,11.79
2023-12-31T20:17:47.579Z,11.61
2023-12-31T20:20:21.082Z,11.45
2023-12-31T20:22:49.783Z,11.60
2023-12-31T20:25:19.284Z,12.06
2023-12-31T20:27:50.337Z,11.20
2023-12-31T20:30:19.740Z,11.15
2023-12-31T20:32:49.165Z,11.86
2023-12-31T20:35:17.346Z,11.63
2023-12-31T20:37:45.408Z,11.56
2023-12-31T20:40:15.701Z,11.30
2023-12-31T20:42:46.874Z,11.58
2023-12-31T20:45:17.956Z,11.97
2023-12-31T20:47:48.507Z,12.22
2023-12-31T20:50:18.709Z,11.71
2023-12-31T20:52:51.924Z,11.27
2023-12-31T20:55:27.225Z,11.11
2023-12-31T20:57:58.572Z,11.34
2023-12-31T21:00:28.524Z,11.99
2023-12-31T21:03:03.668Z,11.44
2023-12-31T21:05:35.197Z,11.80
2023-12-31T21:08:04.124Z,11.65
2023-12-31T21:10:42.517Z,11.81
2023-12-31T21:13:12.944Z,12.00
2023-12-31T21:15:41.547Z,11.40
2023-12-31T21:18:19.097Z,11.79
2023-12-31T21:20:48.808Z,11.63
2023-12-31T21:23:18.400Z,11.66
2023-12-31T21:25:46.864Z,12.05
2023-12-31T21:28:16.101Z,11.45
2023-12-31T21:30:51.146Z,11.95
2023-12-31T21:33:30.376Z,11.87
2023-12-31T21:36:00.740Z,11.22
2023-12-31T21:38:29.924Z,11.52
2023-12-31T21:41:00.413Z,11.74
2023-12-31T21:43:31.673Z,11.93
2023-12-31T21:46:04.565Z,11.69
2023-12-31T21:48:34.445Z,11.56
2023-12-31T21:51:02.928Z,12.29
2023-12-31T21:53:34.476Z,11.55
2023-12-31T21:56:29.779Z,11.69
2023-12-31T21:59:00.208Z,10.78
2023-12-31T22:01:28.119Z,11.39
2023-12-31T22:04:05.488Z,10.97
2023-12-31T22:06:38.790Z,11.68
2023-12-31T22:09:10.239Z,10.87
2023-12-31T22:11:43.556Z,11.82
2023-12-31T22:14:11.769Z,10.91
2023-12-31T22:16:44.219Z,11.52
2023-12-31T22:19:15.208Z,11.42
2023-12-31T22:21:48.542Z,10.49
2023-12-31T22:24:17.934Z,10.97
2023-12-31T22:26:54.520Z,11.31
2023-12-31T22:29:23.217Z,11.18
2023-12-31T22:31:53.890Z,11.31
2023-12-31T22:34:29.483Z,10.81
2023-12-31T22:37:00.068Z,10.84
2023-12-31T22:39:33.164Z,10.64
2023-12-31T22:42:02.792Z,11.25
2023-12-31T22:44:32.303Z,11.54
2023-12-31T22:47:04.461Z,11.88
2023-12-31T22:49:34.288Z,10.88
2023-12-31T22:52:04.138Z,11.14
2023-12-31T22:54:32.038Z,11.21
2023-12-31T22:57:06.310Z,11.79
2023-12-31T22:59:34.261Z,11.27
2023-12-31T23:02:02.452Z,11.32
2023-12-31T23:04:35.845Z,11.53
2023-12-31T23:07:05.644Z,10.84
2023-12-31T23:09:34.910Z,11.78
2023-12-31T23:12:06.126Z,11.35
2023-12-31T23:14:35.670Z,11.06
2023-12-31T23:17:07.441Z,11.09
2023-12-31T23:19:42.609Z,11.14
2023-12-31T23:22:13.085Z,12.09
2023-12-31T23:24:44.380Z,11.47
2023-12-31T23:27:14.362Z,11.60
2023-12-31T23:29:45.587Z,11.88
2023-12-31T23:32:15.602Z,11.72
2023-12-31T23:34:47.515Z,12.25
2023-12-31T23:37:22.529Z,11.78
2023-12-31T23:39:51.681Z,11.61
2023-12-31T23:42:22.660Z,11.72
2023-12-31T23:44:50.549Z,12.49
2023-12-31T23:47:19.084Z,11.96
2023-12-31T23:49:56.821Z,12.12
2023-12-31T23:52:26.001Z,11.84
2023-12-31T23:54:54.325Z,12.20
2023-12-31T23:57:25.433Z,11.55
